Simi Valley, California
Current Conditions -  °F | °C
As of 9:51 PM on Wednesday 28 Jan 2015 (Local Time) from KVNY Reporting Station
Clear Clear  
Wind Chill: 65°   Ceiling: Unl
Heat Index: 65°   Visibility: 10mi
Dew Point: 44°   Wind: 12mph
Humidity: 47%   Direction: 360°N
Pressure: 30.1"   Gusts: NA
Location:  34.29°N, 118.71°W
Report Text: KVNY 290551Z AUTO 36010KT 10SM CLR 18/07 A3010 RMK AO2 SLP188 T01830067 10206 20178 51002
Loading
Personal Weather Stations






























Interactive Weather Map New forecast layout! Learn more

10-Day Weather Forecast

Advertisements
Track Severe Weather on mobile